createdAt,value
2019-05-06T00:00:37.561Z,0
2019-05-06T00:01:36.825Z,0
2019-05-06T00:01:48.667Z,0
2019-05-06T00:02:47.859Z,0
2019-05-06T00:03:47.076Z,0
2019-05-06T00:04:58.135Z,0
2019-05-06T00:05:57.362Z,0
2019-05-06T00:07:08.420Z,0
2019-05-06T00:08:07.622Z,0
2019-05-06T00:09:06.833Z,0
2019-05-06T00:09:18.706Z,0
2019-05-06T00:10:17.918Z,0
2019-05-06T00:11:17.142Z,0
2019-05-06T00:12:17.344Z,0
2019-05-06T00:13:16.649Z,0
2019-05-06T00:13:28.491Z,0
2019-05-06T00:14:27.731Z,0
2019-05-06T00:15:26.966Z,0
2019-05-06T00:16:38.014Z,0
2019-05-06T00:17:37.221Z,0
2019-05-06T00:18:48.315Z,0
2019-05-06T00:19:47.583Z,0
2019-05-06T00:20:46.800Z,0
2019-05-06T00:20:58.644Z,0
2019-05-06T00:21:57.813Z,0
2019-05-06T00:22:57.046Z,0
2019-05-06T00:24:08.088Z,0
2019-05-06T00:25:07.298Z,0
2019-05-06T00:26:18.325Z,0
2019-05-06T00:27:17.550Z,0
2019-05-06T00:28:16.740Z,0
2019-05-06T00:28:28.576Z,0
2019-05-06T00:29:27.810Z,0
2019-05-06T00:30:27.049Z,0
2019-05-06T00:31:38.072Z,0
2019-05-06T00:32:37.273Z,0
2019-05-06T00:33:48.291Z,0
2019-05-06T00:34:47.518Z,0
2019-05-06T00:35:46.740Z,0
2019-05-06T00:36:00.419Z,0
2019-05-06T00:36:57.799Z,0
2019-05-06T00:37:56.993Z,0
2019-05-06T00:39:08.086Z,0
2019-05-06T00:40:07.265Z,0
2019-05-06T00:41:18.312Z,0
2019-05-06T00:42:17.552Z,0
2019-05-06T00:43:16.730Z,0
2019-05-06T00:43:28.561Z,0
2019-05-06T00:44:27.768Z,0
2019-05-06T00:45:26.967Z,0
2019-05-06T00:46:38.045Z,0
2019-05-06T00:47:37.271Z,0
2019-05-06T00:48:48.295Z,0
2019-05-06T00:49:47.514Z,0
2019-05-06T00:50:46.749Z,0
2019-05-06T00:50:58.592Z,0
2019-05-06T00:51:57.802Z,0
2019-05-06T00:52:57.002Z,0
2019-05-06T00:54:08.027Z,0
2019-05-06T00:55:07.268Z,0
2019-05-06T00:56:18.318Z,0
2019-05-06T00:57:17.516Z,0
2019-05-06T00:58:16.766Z,0
2019-05-06T00:58:28.607Z,0
2019-05-06T00:59:27.813Z,0
2019-05-06T01:00:27.028Z,0
2019-05-06T01:02:38.223Z,0
2019-05-06T01:03:37.463Z,0
2019-05-06T01:04:36.655Z,0
2019-05-06T01:04:48.499Z,0
2019-05-06T01:05:47.686Z,0
2019-05-06T01:06:46.891Z,0
2019-05-06T01:07:57.962Z,0
2019-05-06T01:08:57.173Z,0
2019-05-06T01:09:57.361Z,0
2019-05-06T01:11:08.400Z,0
2019-05-06T01:12:07.619Z,0
2019-05-06T01:13:06.902Z,0
2019-05-06T01:14:17.930Z,0
2019-05-06T01:15:17.125Z,0
2019-05-06T01:16:28.172Z,0
2019-05-06T01:17:27.384Z,0
2019-05-06T01:18:26.642Z,0
2019-05-06T01:18:38.485Z,0
2019-05-06T01:19:37.683Z,0
2019-05-06T01:20:36.875Z,0
2019-05-06T01:20:48.717Z,0
2019-05-06T01:21:47.912Z,0
2019-05-06T01:22:47.138Z,0
2019-05-06T01:23:58.207Z,0
2019-05-06T01:24:58.400Z,0
2019-05-06T01:25:57.611Z,0
2019-05-06T01:26:56.821Z,0
2019-05-06T01:27:08.661Z,0
2019-05-06T01:28:07.876Z,0
2019-05-06T01:29:07.090Z,0
2019-05-06T01:30:18.137Z,0
2019-05-06T01:31:17.324Z,0
2019-05-06T01:32:28.345Z,0
2019-05-06T01:33:27.566Z,0
2019-05-06T01:34:26.773Z,0
2019-05-06T01:34:38.614Z,0
2019-05-06T01:35:37.819Z,0
2019-05-06T01:36:37.023Z,0
2019-05-06T01:37:48.043Z,0
2019-05-06T01:38:47.292Z,0
2019-05-06T01:39:58.329Z,0
2019-05-06T01:40:57.553Z,0
2019-05-06T01:41:56.768Z,0
2019-05-06T01:42:08.605Z,0
2019-05-06T01:43:07.791Z,0
2019-05-06T01:44:07.035Z,0
2019-05-06T01:45:18.059Z,0
2019-05-06T01:46:17.260Z,0
2019-05-06T01:47:28.307Z,0
2019-05-06T01:48:27.509Z,0
2019-05-06T01:49:26.779Z,0
2019-05-06T01:49:38.640Z,0
2019-05-06T01:50:37.835Z,0
2019-05-06T01:51:37.041Z,0
2019-05-06T01:52:48.083Z,0
2019-05-06T01:53:47.279Z,0
2019-05-06T01:54:58.343Z,0
2019-05-06T01:55:57.553Z,0
2019-05-06T01:56:56.735Z,0
2019-05-06T01:57:08.584Z,0
2019-05-06T01:58:07.785Z,0
2019-05-06T01:59:06.985Z,0
2019-05-06T02:00:18.079Z,0
2019-05-06T02:01:17.259Z,0
2019-05-06T02:02:28.284Z,0
2019-05-06T02:03:27.476Z,0
2019-05-06T02:04:26.691Z,0
2019-05-06T02:04:38.532Z,0
2019-05-06T02:05:37.736Z,0
2019-05-06T02:06:36.973Z,0
2019-05-06T02:07:48.017Z,0
2019-05-06T02:08:47.206Z,0
2019-05-06T02:09:58.243Z,0
2019-05-06T02:10:57.567Z,0
2019-05-06T02:11:57.766Z,0
2019-05-06T02:12:56.955Z,0
2019-05-06T02:14:07.990Z,0
2019-05-06T02:15:07.190Z,0
2019-05-06T02:16:18.299Z,0
2019-05-06T02:17:17.500Z,0
2019-05-06T02:18:16.692Z,0
2019-05-06T02:18:28.535Z,0
2019-05-06T02:19:27.731Z,0
2019-05-06T02:20:26.920Z,0
2019-05-06T02:21:38.000Z,0
2019-05-06T02:22:37.322Z,0
2019-05-06T02:23:48.356Z,0
2019-05-06T02:24:47.556Z,0
2019-05-06T02:25:46.740Z,0
2019-05-06T02:25:58.582Z,0
2019-05-06T02:26:57.784Z,0
2019-05-06T02:27:57.009Z,0
2019-05-06T02:29:08.051Z,0
2019-05-06T02:30:07.241Z,0
2019-05-06T02:31:18.307Z,0
2019-05-06T02:32:25.875Z,0
2019-05-06T02:33:17.787Z,0
2019-05-06T02:34:16.981Z,0
2019-05-06T02:35:28.038Z,0
2019-05-06T02:36:27.229Z,0
2019-05-06T02:37:38.300Z,0
2019-05-06T02:38:46.367Z,0
2019-05-06T02:39:37.708Z,0
2019-05-06T02:40:36.905Z,0
2019-05-06T02:41:37.108Z,0
2019-05-06T02:42:48.156Z,0
2019-05-06T02:43:47.371Z,0
2019-05-06T02:44:58.436Z,0
2019-05-06T02:45:57.675Z,0
2019-05-06T02:46:56.882Z,0
2019-05-06T02:47:08.716Z,0
2019-05-06T02:48:07.996Z,0
2019-05-06T02:49:07.185Z,0
2019-05-06T02:50:18.223Z,0
2019-05-06T02:51:17.455Z,0
2019-05-06T02:52:16.649Z,0
2019-05-06T02:52:28.491Z,0
2019-05-06T02:53:27.698Z,0
2019-05-06T02:54:26.896Z,0
2019-05-06T02:56:38.280Z,0
2019-05-06T02:57:37.489Z,0
2019-05-06T02:58:36.681Z,0
2019-05-06T02:58:48.524Z,0
2019-05-06T02:59:47.753Z,0
2019-05-06T03:00:47.979Z,0
2019-05-06T03:01:47.168Z,0
2019-05-06T03:02:48.313Z,0
2019-05-06T03:03:58.364Z,0
2019-05-06T03:04:57.719Z,0
2019-05-06T03:05:56.903Z,0
2019-05-06T03:07:07.933Z,0
2019-05-06T03:08:07.117Z,0
2019-05-06T03:09:18.144Z,0
2019-05-06T03:10:06.625Z,0
2019-05-06T03:10:18.470Z,0
2019-05-06T03:11:17.656Z,0
2019-05-06T03:12:17.866Z,0
2019-05-06T03:13:17.056Z,0
2019-05-06T03:14:28.119Z,0
2019-05-06T03:15:28.358Z,0
2019-05-06T03:16:27.591Z,0
2019-05-06T03:17:26.811Z,0
2019-05-06T03:17:38.658Z,0
2019-05-06T03:18:37.857Z,0
2019-05-06T03:19:37.051Z,0
2019-05-06T03:20:48.244Z,0
2019-05-06T03:21:47.464Z,0
2019-05-06T03:22:46.660Z,0
2019-05-06T03:22:58.506Z,0
2019-05-06T03:23:46.879Z,0
2019-05-06T03:23:58.721Z,0
2019-05-06T03:24:57.933Z,0
2019-05-06T03:25:57.206Z,0
2019-05-06T03:27:08.281Z,0
2019-05-06T03:28:07.566Z,0
2019-05-06T03:29:06.819Z,0
2019-05-06T03:29:18.663Z,0
2019-05-06T03:30:17.892Z,0
2019-05-06T03:31:18.097Z,0
2019-05-06T03:32:24.404Z,0
2019-05-06T03:33:39.830Z,0
2019-05-06T03:34:37.984Z,0
2019-05-06T03:35:32.127Z,0
2019-05-06T03:36:25.453Z,0
2019-05-06T03:37:18.235Z,0
2019-05-06T03:38:17.433Z,0
2019-05-06T03:39:16.656Z,0
2019-05-06T03:39:28.493Z,0
2019-05-06T03:40:27.703Z,0
2019-05-06T03:41:26.978Z,0
2019-05-06T03:42:38.001Z,0
2019-05-06T03:43:37.262Z,0
2019-05-06T03:44:48.333Z,0
2019-05-06T03:45:47.573Z,0
2019-05-06T03:46:46.785Z,0
2019-05-06T03:46:58.631Z,0
2019-05-06T03:47:57.852Z,0
2019-05-06T03:48:57.086Z,0
2019-05-06T03:50:08.173Z,0
2019-05-06T03:51:07.380Z,0
2019-05-06T03:52:18.428Z,0
2019-05-06T03:53:17.638Z,0
2019-05-06T03:54:16.898Z,0
2019-05-06T03:55:27.951Z,0
2019-05-06T03:56:28.136Z,0
2019-05-06T03:57:27.349Z,0
2019-05-06T03:58:38.435Z,0
2019-05-06T03:59:37.709Z,0
2019-05-06T04:00:36.951Z,0
2019-05-06T04:01:48.006Z,0
2019-05-06T04:02:48.213Z,0
2019-05-06T04:03:52.439Z,0
2019-05-06T04:04:47.703Z,0
2019-05-06T04:05:46.903Z,0
2019-05-06T04:06:57.957Z,0
2019-05-06T04:07:57.155Z,0
2019-05-06T04:09:08.245Z,0
2019-05-06T04:10:07.442Z,5.625
2019-05-06T04:11:06.653Z,5.625
2019-05-06T04:11:18.488Z,5.625
2019-05-06T04:12:17.683Z,5.625
2019-05-06T04:13:16.909Z,0
2019-05-06T04:15:28.236Z,0
2019-05-06T04:16:27.438Z,0
2019-05-06T04:17:26.634Z,0
2019-05-06T04:17:38.494Z,0
2019-05-06T04:18:37.692Z,0
2019-05-06T04:19:36.972Z,0
2019-05-06T04:20:48.019Z,5.625
2019-05-06T04:21:47.216Z,5.625
2019-05-06T04:22:58.265Z,5.625
2019-05-06T04:23:57.476Z,5.625
2019-05-06T04:24:56.729Z,5.625
2019-05-06T04:25:08.588Z,5.625
2019-05-06T04:26:07.788Z,5.625
2019-05-06T04:27:07.022Z,5.625
2019-05-06T04:28:18.082Z,5.625
2019-05-06T04:29:17.334Z,5.625
2019-05-06T04:30:16.650Z,5.625
2019-05-06T04:30:28.489Z,5.625
2019-05-06T04:31:27.702Z,5.625
2019-05-06T04:32:26.902Z,5.625
2019-05-06T04:33:38.028Z,5.625
2019-05-06T04:34:37.182Z,5.625
2019-05-06T04:35:48.376Z,5.625
2019-05-06T04:36:47.612Z,5.625
2019-05-06T04:37:46.810Z,5.625
2019-05-06T04:37:58.646Z,5.625
2019-05-06T04:38:57.850Z,5.625
2019-05-06T04:39:58.059Z,11.25
2019-05-06T04:40:57.323Z,11.25
2019-05-06T04:42:09.436Z,11.25
2019-05-06T04:43:07.629Z,11.25
2019-05-06T04:44:06.840Z,11.25
2019-05-06T04:44:18.652Z,11.25
2019-05-06T04:45:17.878Z,11.25
2019-05-06T04:46:17.275Z,11.25
2019-05-06T04:47:28.204Z,11.25
2019-05-06T04:48:27.409Z,5.625
2019-05-06T04:49:26.624Z,5.625
2019-05-06T04:49:38.475Z,5.625
2019-05-06T04:50:37.702Z,5.625
2019-05-06T04:51:37.259Z,5.625
2019-05-06T04:52:48.136Z,5.625
2019-05-06T04:53:48.330Z,5.625
2019-05-06T04:54:47.541Z,5.625
2019-05-06T04:55:46.758Z,11.25
2019-05-06T04:55:58.623Z,11.25
2019-05-06T04:56:57.823Z,11.25
2019-05-06T04:57:57.050Z,11.25
2019-05-06T04:59:08.159Z,11.25
2019-05-06T05:00:07.393Z,11.25
2019-05-06T05:02:06.786Z,16.875
2019-05-06T05:02:18.643Z,16.875
2019-05-06T05:03:17.852Z,16.875
2019-05-06T05:04:27.540Z,16.875
2019-05-06T05:05:17.304Z,16.875
2019-05-06T05:06:28.377Z,16.875
2019-05-06T05:07:27.597Z,16.875
2019-05-06T05:08:26.868Z,16.875
2019-05-06T05:08:38.704Z,16.875
2019-05-06T05:09:37.964Z,11.25
2019-05-06T05:10:37.174Z,11.25
2019-05-06T05:11:48.223Z,16.875
2019-05-06T05:12:47.426Z,16.875
2019-05-06T05:13:46.786Z,16.875
2019-05-06T05:13:58.630Z,16.875
2019-05-06T05:14:57.802Z,22.5
2019-05-06T05:15:57.015Z,22.5
2019-05-06T05:17:08.053Z,22.5
2019-05-06T05:18:07.242Z,28.125
2019-05-06T05:19:07.498Z,28.125
2019-05-06T05:20:06.710Z,28.125
2019-05-06T05:20:18.548Z,28.125
2019-05-06T05:21:17.715Z,28.125
2019-05-06T05:22:16.932Z,28.125
2019-05-06T05:23:28.033Z,33.75
2019-05-06T05:24:27.319Z,33.75
2019-05-06T05:25:38.402Z,33.75
2019-05-06T05:26:26.759Z,33.75
2019-05-06T05:26:38.602Z,39.375
2019-05-06T05:27:37.864Z,33.75
2019-05-06T05:28:37.212Z,33.75
2019-05-06T05:29:48.267Z,39.375
2019-05-06T05:30:47.502Z,39.375
2019-05-06T05:31:46.690Z,39.375
2019-05-06T05:31:58.540Z,39.375
2019-05-06T05:32:57.780Z,39.375
2019-05-06T05:33:57.017Z,39.375
2019-05-06T05:35:08.124Z,33.75
2019-05-06T05:36:07.358Z,33.75
2019-05-06T05:37:18.422Z,28.125
2019-05-06T05:38:17.636Z,28.125
2019-05-06T05:39:16.910Z,28.125
2019-05-06T05:40:27.972Z,22.5
2019-05-06T05:41:27.172Z,22.5
2019-05-06T05:42:38.214Z,16.875
2019-05-06T05:43:39.454Z,16.875
2019-05-06T05:44:36.697Z,22.5
2019-05-06T05:44:48.536Z,16.875
2019-05-06T05:45:36.893Z,16.875
2019-05-06T05:46:47.999Z,11.25
2019-05-06T05:47:47.208Z,11.25
2019-05-06T05:48:58.315Z,11.25
2019-05-06T05:49:57.515Z,11.25
2019-05-06T05:50:56.717Z,11.25
2019-05-06T05:51:08.582Z,11.25
2019-05-06T05:52:07.809Z,11.25
2019-05-06T05:53:07.023Z,16.875
2019-05-06T05:54:18.066Z,22.5
2019-05-06T05:55:17.408Z,28.125
2019-05-06T05:56:16.639Z,33.75
2019-05-06T05:56:28.497Z,33.75
2019-05-06T05:57:27.695Z,33.75
2019-05-06T05:58:27.898Z,33.75
2019-05-06T05:59:27.110Z,33.75
2019-05-06T06:00:38.179Z,39.375
2019-05-06T06:01:37.396Z,45
2019-05-06T06:02:36.622Z,56.25
2019-05-06T06:02:48.457Z,56.25
2019-05-06T06:03:47.672Z,56.25
2019-05-06T06:04:54.632Z,56.25
2019-05-06T06:05:47.088Z,50.625
2019-05-06T06:06:58.161Z,33.75
2019-05-06T06:07:57.364Z,33.75
2019-05-06T06:09:08.433Z,28.125
2019-05-06T06:10:08.685Z,16.875
2019-05-06T06:11:07.942Z,11.25
2019-05-06T06:12:07.176Z,11.25
2019-05-06T06:13:18.246Z,5.625
2019-05-06T06:14:17.472Z,5.625
2019-05-06T06:15:16.670Z,11.25
2019-05-06T06:15:28.512Z,11.25
2019-05-06T06:16:27.777Z,16.875
2019-05-06T06:17:27.017Z,16.875
2019-05-06T06:18:38.086Z,16.875
2019-05-06T06:19:37.295Z,22.5
2019-05-06T06:20:36.618Z,28.125
2019-05-06T06:20:48.462Z,22.5
2019-05-06T06:21:47.646Z,22.5
2019-05-06T06:22:46.907Z,22.5
2019-05-06T06:23:57.962Z,22.5
2019-05-06T06:24:57.171Z,22.5
2019-05-06T06:26:08.240Z,22.5
2019-05-06T06:27:07.619Z,28.125
2019-05-06T06:28:06.847Z,22.5
2019-05-06T06:28:18.688Z,22.5
2019-05-06T06:29:17.936Z,16.875
2019-05-06T06:30:17.205Z,11.25
2019-05-06T06:31:28.257Z,11.25
2019-05-06T06:32:27.496Z,11.25
2019-05-06T06:33:26.852Z,11.25
2019-05-06T06:33:38.689Z,11.25
2019-05-06T06:34:37.898Z,11.25
2019-05-06T06:35:37.111Z,11.25
2019-05-06T06:36:48.163Z,16.875
2019-05-06T06:37:47.445Z,16.875
2019-05-06T06:38:46.656Z,16.875
2019-05-06T06:38:58.504Z,16.875
2019-05-06T06:39:57.739Z,11.25
2019-05-06T06:40:56.932Z,11.25
2019-05-06T06:42:07.982Z,16.875
2019-05-06T06:43:07.238Z,22.5
2019-05-06T06:44:18.314Z,28.125
2019-05-06T06:45:17.573Z,33.75
2019-05-06T06:46:17.782Z,39.375
2019-05-06T06:47:16.976Z,45
2019-05-06T06:49:28.231Z,50.625
2019-05-06T06:50:27.464Z,50.625
2019-05-06T06:51:26.687Z,50.625
2019-05-06T06:51:38.525Z,56.25
2019-05-06T06:52:37.746Z,67.5
2019-05-06T06:53:36.954Z,61.875
2019-05-06T06:54:48.043Z,56.25
2019-05-06T06:55:47.286Z,56.25
2019-05-06T06:56:47.514Z,50.625
2019-05-06T06:57:46.712Z,50.625
2019-05-06T06:57:58.553Z,56.25
2019-05-06T06:58:57.790Z,61.875
2019-05-06T06:59:57.055Z,61.875
2019-05-06T07:01:08.262Z,67.5
2019-05-06T07:02:07.601Z,67.5
2019-05-06T07:03:06.847Z,73.125
2019-05-06T07:03:18.717Z,67.5
2019-05-06T07:06:18.383Z,101.25
2019-05-06T07:07:17.718Z,95.625
2019-05-06T07:08:16.918Z,101.25
2019-05-06T07:09:29.688Z,101.25
2019-05-06T07:10:27.202Z,90
2019-05-06T07:11:38.419Z,73.125
2019-05-06T07:12:37.632Z,78.75
2019-05-06T07:13:36.860Z,78.75
2019-05-06T07:13:48.699Z,78.75
2019-05-06T07:14:47.950Z,90
2019-05-06T07:15:47.169Z,90
2019-05-06T07:16:58.308Z,67.5
2019-05-06T07:17:57.539Z,56.25
2019-05-06T07:18:57.734Z,50.625
2019-05-06T07:19:56.933Z,56.25
2019-05-06T07:21:08.055Z,73.125
2019-05-06T07:22:07.306Z,78.75
2019-05-06T07:23:18.403Z,73.125
2019-05-06T07:24:17.595Z,73.125
2019-05-06T07:25:17.039Z,73.125
2019-05-06T07:26:28.152Z,67.5
2019-05-06T07:27:27.351Z,67.5
2019-05-06T07:28:26.617Z,61.875
2019-05-06T07:28:38.465Z,61.875
2019-05-06T07:29:37.731Z,61.875
2019-05-06T07:30:36.933Z,61.875
2019-05-06T07:31:47.957Z,61.875
2019-05-06T07:32:47.229Z,67.5
2019-05-06T07:33:58.332Z,78.75
2019-05-06T07:34:57.552Z,78.75
2019-05-06T07:35:56.766Z,67.5
2019-05-06T07:36:08.613Z,67.5
2019-05-06T07:37:07.875Z,56.25
2019-05-06T07:38:07.683Z,50.625
2019-05-06T07:39:06.899Z,50.625
2019-05-06T07:40:17.975Z,67.5
2019-05-06T07:41:17.244Z,78.75
2019-05-06T07:42:28.364Z,78.75
2019-05-06T07:43:27.583Z,84.375
2019-05-06T07:44:26.795Z,90
2019-05-06T07:44:38.634Z,90
2019-05-06T07:45:37.894Z,90
2019-05-06T07:46:37.171Z,90
2019-05-06T07:47:48.227Z,95.625
2019-05-06T07:48:47.430Z,106.875
2019-05-06T07:49:46.642Z,95.625
2019-05-06T07:49:58.493Z,101.25
2019-05-06T07:50:58.720Z,106.875
2019-05-06T07:51:57.969Z,101.25
2019-05-06T07:52:58.241Z,95.625
2019-05-06T07:53:57.526Z,95.625
2019-05-06T07:54:56.737Z,95.625
2019-05-06T07:55:08.573Z,90
2019-05-06T07:56:07.768Z,95.625
2019-05-06T07:57:06.986Z,90
2019-05-06T07:58:18.021Z,95.625
2019-05-06T07:59:17.267Z,101.25
2019-05-06T08:00:28.422Z,101.25
2019-05-06T08:01:27.647Z,112.5
2019-05-06T08:02:26.874Z,118.125
2019-05-06T08:02:38.720Z,118.125
2019-05-06T08:03:37.933Z,112.5
2019-05-06T08:04:37.154Z,123.75
2019-05-06T08:06:48.434Z,129.375
2019-05-06T08:07:47.680Z,112.5
2019-05-06T08:08:47.904Z,90
2019-05-06T08:09:47.146Z,73.125
2019-05-06T08:10:58.241Z,45
2019-05-06T08:11:57.463Z,33.75
2019-05-06T08:12:56.682Z,28.125
2019-05-06T08:13:08.524Z,28.125
2019-05-06T08:14:07.740Z,28.125
2019-05-06T08:15:07.046Z,28.125
2019-05-06T08:16:07.220Z,33.75
2019-05-06T08:17:18.398Z,50.625
2019-05-06T08:18:17.620Z,50.625
2019-05-06T08:19:16.822Z,61.875
2019-05-06T08:19:28.665Z,61.875
2019-05-06T08:20:27.878Z,67.5
2019-05-06T08:21:27.087Z,84.375
2019-05-06T08:22:38.148Z,90
2019-05-06T08:23:37.353Z,90
2019-05-06T08:24:48.431Z,73.125
2019-05-06T08:25:47.646Z,56.25
2019-05-06T08:26:46.831Z,45
2019-05-06T08:26:58.669Z,45
2019-05-06T08:27:49.464Z,33.75
2019-05-06T08:28:47.425Z,33.75
2019-05-06T08:29:46.646Z,28.125
2019-05-06T08:29:58.489Z,28.125
2019-05-06T08:30:57.691Z,33.75
2019-05-06T08:31:56.909Z,39.375
2019-05-06T08:33:08.038Z,45
2019-05-06T08:34:07.239Z,50.625
2019-05-06T08:36:11.320Z,56.25
2019-05-06T08:37:06.856Z,61.875
2019-05-06T08:37:18.697Z,61.875
2019-05-06T08:38:17.967Z,56.25
2019-05-06T08:39:17.165Z,45
2019-05-06T08:40:28.209Z,33.75
2019-05-06T08:41:27.411Z,33.75
2019-05-06T08:42:26.683Z,33.75
2019-05-06T08:42:38.522Z,33.75
2019-05-06T08:43:37.793Z,39.375
2019-05-06T08:44:37.041Z,33.75
2019-05-06T08:45:48.049Z,22.5
2019-05-06T08:46:47.284Z,22.5
2019-05-06T08:47:58.345Z,33.75
2019-05-06T08:48:57.585Z,33.75
2019-05-06T08:49:57.793Z,33.75
2019-05-06T08:50:57.020Z,39.375
2019-05-06T08:51:57.204Z,50.625
2019-05-06T08:53:08.272Z,61.875
2019-05-06T08:54:07.548Z,78.75
2019-05-06T08:55:06.793Z,90
2019-05-06T08:55:18.643Z,95.625
2019-05-06T08:56:06.996Z,95.625
2019-05-06T08:57:18.047Z,84.375
2019-05-06T08:58:17.261Z,61.875
2019-05-06T08:59:28.292Z,39.375
2019-05-06T09:00:27.598Z,28.125
2019-05-06T09:01:26.762Z,28.125
2019-05-06T09:01:38.606Z,28.125
2019-05-06T09:02:37.826Z,33.75
2019-05-06T09:03:37.064Z,67.5
2019-05-06T09:04:48.150Z,90
2019-05-06T09:05:47.385Z,90
2019-05-06T09:06:58.412Z,90
2019-05-06T09:07:57.618Z,73.125
2019-05-06T09:08:57.144Z,56.25
2019-05-06T09:09:08.681Z,50.625
2019-05-06T09:10:08.020Z,50.625
2019-05-06T09:11:07.234Z,50.625
2019-05-06T09:12:18.299Z,45
2019-05-06T09:13:17.529Z,61.875
2019-05-06T09:14:17.731Z,78.75
2019-05-06T09:15:16.996Z,90
2019-05-06T09:16:28.031Z,112.5
2019-05-06T09:17:27.251Z,112.5
2019-05-06T09:18:38.302Z,112.5
2019-05-06T09:19:37.596Z,106.875
2019-05-06T09:20:36.834Z,118.125
2019-05-06T09:20:48.679Z,118.125
2019-05-06T09:21:47.888Z,123.75
2019-05-06T09:22:47.093Z,112.5
2019-05-06T09:23:58.185Z,106.875
2019-05-06T09:24:57.410Z,106.875
2019-05-06T09:25:56.626Z,95.625
2019-05-06T09:26:08.466Z,90
2019-05-06T09:27:07.687Z,101.25
2019-05-06T09:28:06.894Z,101.25
2019-05-06T09:29:17.940Z,112.5
2019-05-06T09:30:17.169Z,101.25
2019-05-06T09:31:17.393Z,95.625
2019-05-06T09:32:17.644Z,101.25
2019-05-06T09:33:16.903Z,118.125
2019-05-06T09:34:27.962Z,129.375
2019-05-06T09:35:27.221Z,135
2019-05-06T09:37:26.691Z,129.375
2019-05-06T09:37:38.534Z,123.75
2019-05-06T09:38:37.769Z,106.875
2019-05-06T09:39:36.997Z,106.875
2019-05-06T09:40:48.105Z,106.875
2019-05-06T09:41:48.782Z,118.125
2019-05-06T09:42:46.661Z,135
2019-05-06T09:42:58.495Z,135
2019-05-06T09:43:57.727Z,135
2019-05-06T09:44:57.933Z,123.75
2019-05-06T09:45:57.153Z,106.875
2019-05-06T09:47:08.227Z,106.875
2019-05-06T09:48:07.595Z,118.125
2019-05-06T09:49:06.814Z,118.125
2019-05-06T09:49:18.652Z,118.125
2019-05-06T09:50:17.866Z,106.875
2019-05-06T09:51:17.133Z,112.5
2019-05-06T09:52:28.242Z,118.125
2019-05-06T09:53:27.477Z,123.75
2019-05-06T09:54:26.674Z,123.75
2019-05-06T09:54:38.532Z,123.75
2019-05-06T09:55:37.786Z,112.5
2019-05-06T09:56:37.063Z,95.625
2019-05-06T09:57:48.140Z,61.875
2019-05-06T09:58:47.366Z,56.25
2019-05-06T09:59:58.393Z,73.125
2019-05-06T10:00:57.650Z,67.5
2019-05-06T10:01:56.881Z,56.25
2019-05-06T10:02:08.715Z,56.25
2019-05-06T10:03:07.983Z,50.625
2019-05-06T10:04:07.267Z,45
2019-05-06T10:05:18.322Z,56.25
2019-05-06T10:06:17.525Z,78.75
2019-05-06T10:07:16.714Z,67.5
2019-05-06T10:07:28.552Z,61.875
2019-05-06T10:08:27.804Z,56.25
2019-05-06T10:09:27.095Z,67.5
2019-05-06T10:10:38.140Z,73.125
2019-05-06T10:11:37.326Z,84.375
2019-05-06T10:12:48.404Z,101.25
2019-05-06T10:13:47.633Z,101.25
2019-05-06T10:14:46.899Z,118.125
2019-05-06T10:14:58.725Z,118.125
2019-05-06T10:15:57.961Z,129.375
2019-05-06T10:16:57.201Z,135
2019-05-06T10:18:08.367Z,135
2019-05-06T10:19:07.660Z,135
2019-05-06T10:20:06.940Z,129.375
2019-05-06T10:21:17.987Z,129.375
2019-05-06T10:22:17.177Z,135
2019-05-06T10:23:28.221Z,129.375
2019-05-06T10:24:27.441Z,135
2019-05-06T10:25:26.645Z,129.375
2019-05-06T10:25:38.479Z,123.75
2019-05-06T10:26:37.711Z,112.5
2019-05-06T10:27:36.902Z,101.25
2019-05-06T10:28:48.040Z,101.25
2019-05-06T10:29:47.244Z,95.625
2019-05-06T10:30:58.280Z,90
2019-05-06T10:31:58.487Z,84.375
2019-05-06T10:32:57.697Z,78.75
2019-05-06T10:33:57.089Z,106.875
2019-05-06T10:35:08.134Z,135
2019-05-06T10:36:07.316Z,146.25
2019-05-06T10:37:15.104Z,146.25
2019-05-06T10:38:06.748Z,140.625
2019-05-06T10:38:18.587Z,140.625
2019-05-06T10:39:17.800Z,146.25
2019-05-06T10:40:17.002Z,146.25
2019-05-06T10:41:28.050Z,146.25
2019-05-06T10:42:27.271Z,140.625
2019-05-06T10:43:27.515Z,146.25
2019-05-06T10:44:26.695Z,146.25
2019-05-06T10:44:38.533Z,151.875
2019-05-06T10:45:37.753Z,146.25
2019-05-06T10:46:36.968Z,140.625
2019-05-06T10:47:48.022Z,135
2019-05-06T10:48:47.290Z,135
2019-05-06T10:49:58.347Z,135
2019-05-06T10:50:57.568Z,135
2019-05-06T10:51:56.896Z,129.375
2019-05-06T10:53:07.973Z,146.25
2019-05-06T10:54:07.306Z,151.875
2019-05-06T10:55:18.371Z,146.25
2019-05-06T10:56:17.626Z,129.375
2019-05-06T10:57:16.822Z,135
2019-05-06T10:57:28.661Z,135
2019-05-06T10:59:28.093Z,151.875
2019-05-06T11:00:27.351Z,146.25
2019-05-06T11:01:38.408Z,151.875
2019-05-06T11:02:37.645Z,135
2019-05-06T11:03:37.838Z,112.5
2019-05-06T11:04:37.068Z,101.25
2019-05-06T11:05:37.314Z,101.25
2019-05-06T11:06:48.390Z,101.25
2019-05-06T11:07:47.583Z,112.5
2019-05-06T11:08:46.790Z,129.375
2019-05-06T11:08:58.624Z,135
2019-05-06T11:09:57.838Z,129.375
2019-05-06T11:11:11.000Z,118.125
2019-05-06T11:12:08.114Z,118.125
2019-05-06T11:13:07.318Z,118.125
2019-05-06T11:14:18.364Z,129.375
2019-05-06T11:15:17.619Z,129.375
2019-05-06T11:16:17.181Z,140.625
2019-05-06T11:17:17.192Z,140.625
2019-05-06T11:18:28.281Z,129.375
2019-05-06T11:19:27.512Z,118.125
2019-05-06T11:20:27.068Z,112.5
2019-05-06T11:21:38.182Z,101.25
2019-05-06T11:22:37.374Z,78.75
2019-05-06T11:23:48.431Z,78.75
2019-05-06T11:24:47.651Z,84.375
2019-05-06T11:25:46.886Z,90
2019-05-06T11:26:58.087Z,123.75
2019-05-06T11:27:57.290Z,140.625
2019-05-06T11:29:08.373Z,129.375
2019-05-06T11:30:07.582Z,135
2019-05-06T11:31:09.166Z,151.875
2019-05-06T11:32:18.007Z,146.25
2019-05-06T11:33:17.193Z,157.5
2019-05-06T11:34:28.264Z,146.25
2019-05-06T11:35:27.483Z,123.75
2019-05-06T11:36:26.739Z,112.5
2019-05-06T11:36:38.584Z,106.875
2019-05-06T11:37:46.799Z,101.25
2019-05-06T11:38:37.037Z,123.75
2019-05-06T11:39:48.108Z,151.875
2019-05-06T11:40:47.288Z,151.875
2019-05-06T11:42:46.718Z,118.125
2019-05-06T11:42:58.558Z,112.5
2019-05-06T11:43:57.797Z,106.875
2019-05-06T11:44:57.082Z,106.875
2019-05-06T11:46:08.181Z,123.75
2019-05-06T11:47:07.436Z,112.5
2019-05-06T11:48:06.738Z,106.875
2019-05-06T11:48:18.590Z,112.5
2019-05-06T11:49:17.849Z,106.875
2019-05-06T11:50:17.050Z,106.875
2019-05-06T11:51:28.120Z,95.625
2019-05-06T11:52:27.480Z,78.75
2019-05-06T11:53:28.249Z,67.5
2019-05-06T11:54:20.640Z,61.875
2019-05-06T11:55:28.674Z,50.625
2019-05-06T11:56:16.645Z,56.25
2019-05-06T11:56:28.481Z,56.25
2019-05-06T11:57:27.746Z,56.25
2019-05-06T11:58:27.013Z,56.25
2019-05-06T11:59:38.442Z,50.625
2019-05-06T12:01:26.681Z,45
2019-05-06T12:01:38.606Z,45
2019-05-06T12:02:39.857Z,45
2019-05-06T12:03:37.656Z,50.625
2019-05-06T12:04:37.223Z,56.25
2019-05-06T12:05:36.715Z,67.5
2019-05-06T12:05:48.651Z,67.5
2019-05-06T12:06:48.076Z,84.375
2019-05-06T12:08:00.738Z,90
2019-05-06T12:08:47.032Z,78.75
2019-05-06T12:09:47.599Z,67.5
2019-05-06T12:10:47.098Z,73.125
2019-05-06T12:11:58.452Z,78.75
2019-05-06T12:12:57.947Z,84.375
2019-05-06T12:13:47.611Z,95.625
2019-05-06T12:14:47.144Z,101.25
2019-05-06T12:15:47.718Z,106.875
2019-05-06T12:16:47.261Z,106.875
2019-05-06T12:17:46.731Z,112.5
2019-05-06T12:17:58.629Z,112.5
2019-05-06T12:18:59.853Z,112.5
2019-05-06T12:19:57.802Z,112.5
2019-05-06T12:21:08.113Z,106.875
2019-05-06T12:21:56.770Z,95.625
2019-05-06T12:22:08.680Z,90
2019-05-06T12:23:08.165Z,78.75
2019-05-06T12:24:07.982Z,78.75
2019-05-06T12:25:11.241Z,90
2019-05-06T12:26:07.068Z,90
2019-05-06T12:27:18.343Z,101.25
2019-05-06T12:28:17.765Z,106.875
2019-05-06T12:29:16.814Z,90
2019-05-06T12:29:28.727Z,84.375
2019-05-06T12:30:27.962Z,67.5
2019-05-06T12:31:27.174Z,67.5
2019-05-06T12:32:38.268Z,67.5
2019-05-06T12:33:37.446Z,67.5
2019-05-06T12:34:36.666Z,67.5
2019-05-06T12:34:48.510Z,67.5
2019-05-06T12:35:47.720Z,56.25
2019-05-06T12:36:46.912Z,56.25
2019-05-06T12:37:57.961Z,56.25
2019-05-06T12:38:57.173Z,56.25
2019-05-06T12:39:57.438Z,45
2019-05-06T12:40:59.651Z,33.75
2019-05-06T12:41:08.466Z,33.75
2019-05-06T12:42:07.685Z,33.75